sensor_id;sensor_type;location;lat;lon;timestamp;P1;durP1;ratioP1;P2;durP2;ratioP2
22705;SDS011;11520;51.198;4.468;2023-07-02T00:01:44;28.08;;;14.15;;
22705;SDS011;11520;51.198;4.468;2023-07-02T00:04:10;27.25;;;13.23;;
22705;SDS011;11520;51.198;4.468;2023-07-02T00:06:38;26.50;;;14.20;;
22705;SDS011;11520;51.198;4.468;2023-07-02T00:09:05;28.23;;;15.32;;
22705;SDS011;11520;51.198;4.468;2023-07-02T00:11:31;29.23;;;13.32;;
22705;SDS011;11520;51.198;4.468;2023-07-02T00:13:57;29.42;;;14.80;;
22705;SDS011;11520;51.198;4.468;2023-07-02T00:16:23;29.70;;;13.73;;
22705;SDS011;11520;51.198;4.468;2023-07-02T00:18:48;32.42;;;14.18;;
22705;SDS011;11520;51.198;4.468;2023-07-02T00:21:17;29.02;;;14.95;;
22705;SDS011;11520;51.198;4.468;2023-07-02T00:23:44;31.58;;;15.20;;
22705;SDS011;11520;51.198;4.468;2023-07-02T00:26:09;28.58;;;15.23;;
22705;SDS011;11520;51.198;4.468;2023-07-02T00:28:35;30.70;;;14.10;;
22705;SDS011;11520;51.198;4.468;2023-07-02T00:31:01;28.58;;;14.75;;
22705;SDS011;11520;51.198;4.468;2023-07-02T00:33:27;44.10;;;15.07;;
22705;SDS011;11520;51.198;4.468;2023-07-02T00:35:54;27.40;;;14.73;;
22705;SDS011;11520;51.198;4.468;2023-07-02T00:38:19;31.75;;;15.73;;
22705;SDS011;11520;51.198;4.468;2023-07-02T00:40:46;31.33;;;15.27;;
22705;SDS011;11520;51.198;4.468;2023-07-02T00:43:13;31.27;;;15.68;;
22705;SDS011;11520;51.198;4.468;2023-07-02T00:45:40;30.67;;;15.07;;
22705;SDS011;11520;51.198;4.468;2023-07-02T00:48:06;36.05;;;16.83;;
22705;SDS011;11520;51.198;4.468;2023-07-02T00:50:31;31.85;;;15.18;;
22705;SDS011;11520;51.198;4.468;2023-07-02T00:52:57;30.95;;;15.02;;
22705;SDS011;11520;51.198;4.468;2023-07-02T00:55:23;30.75;;;15.50;;
22705;SDS011;11520;51.198;4.468;2023-07-02T00:57:49;33.60;;;16.65;;
22705;SDS011;11520;51.198;4.468;2023-07-02T01:00:15;37.30;;;17.42;;
22705;SDS011;11520;51.198;4.468;2023-07-02T01:02:41;37.50;;;16.55;;
22705;SDS011;11520;51.198;4.468;2023-07-02T01:05:16;32.28;;;15.82;;
22705;SDS011;11520;51.198;4.468;2023-07-02T01:07:41;35.97;;;16.58;;
22705;SDS011;11520;51.198;4.468;2023-07-02T01:10:07;31.77;;;16.38;;
22705;SDS011;11520;51.198;4.468;2023-07-02T01:12:34;31.30;;;16.33;;
22705;SDS011;11520;51.198;4.468;2023-07-02T01:15:02;34.63;;;16.98;;
22705;SDS011;11520;51.198;4.468;2023-07-02T01:17:29;36.50;;;17.25;;
22705;SDS011;11520;51.198;4.468;2023-07-02T01:20:02;34.13;;;16.73;;
22705;SDS011;11520;51.198;4.468;2023-07-02T01:22:33;33.72;;;16.75;;
22705;SDS011;11520;51.198;4.468;2023-07-02T01:24:59;39.10;;;18.13;;
22705;SDS011;11520;51.198;4.468;2023-07-02T01:27:27;32.95;;;16.38;;
22705;SDS011;11520;51.198;4.468;2023-07-02T01:29:54;37.15;;;18.42;;
22705;SDS011;11520;51.198;4.468;2023-07-02T01:32:20;38.38;;;16.75;;
22705;SDS011;11520;51.198;4.468;2023-07-02T01:34:46;41.70;;;17.77;;
22705;SDS011;11520;51.198;4.468;2023-07-02T01:37:13;34.47;;;17.80;;
22705;SDS011;11520;51.198;4.468;2023-07-02T01:39:40;42.45;;;18.17;;
22705;SDS011;11520;51.198;4.468;2023-07-02T01:42:09;37.33;;;18.17;;
22705;SDS011;11520;51.198;4.468;2023-07-02T01:44:36;39.55;;;18.75;;
22705;SDS011;11520;51.198;4.468;2023-07-02T01:47:03;41.45;;;18.83;;
22705;SDS011;11520;51.198;4.468;2023-07-02T01:49:29;40.33;;;18.17;;
22705;SDS011;11520;51.198;4.468;2023-07-02T01:51:55;38.28;;;17.88;;
22705;SDS011;11520;51.198;4.468;2023-07-02T01:54:22;38.05;;;18.45;;
22705;SDS011;11520;51.198;4.468;2023-07-02T01:56:49;44.15;;;18.65;;
22705;SDS011;11520;51.198;4.468;2023-07-02T01:59:14;38.45;;;19.10;;
22705;SDS011;11520;51.198;4.468;2023-07-02T02:01:41;40.10;;;18.13;;
22705;SDS011;11520;51.198;4.468;2023-07-02T02:04:07;39.65;;;18.80;;
22705;SDS011;11520;51.198;4.468;2023-07-02T02:06:33;37.75;;;18.52;;
22705;SDS011;11520;51.198;4.468;2023-07-02T02:08:59;43.63;;;19.75;;
22705;SDS011;11520;51.198;4.468;2023-07-02T02:11:25;46.95;;;19.90;;
22705;SDS011;11520;51.198;4.468;2023-07-02T02:13:51;41.00;;;18.48;;
22705;SDS011;11520;51.198;4.468;2023-07-02T02:16:16;44.13;;;20.45;;
22705;SDS011;11520;51.198;4.468;2023-07-02T02:18:42;42.13;;;21.13;;
22705;SDS011;11520;51.198;4.468;2023-07-02T02:21:08;45.55;;;20.95;;
22705;SDS011;11520;51.198;4.468;2023-07-02T02:23:33;42.92;;;20.13;;
22705;SDS011;11520;51.198;4.468;2023-07-02T02:26:00;44.90;;;20.20;;
22705;SDS011;11520;51.198;4.468;2023-07-02T02:28:26;46.53;;;20.38;;
22705;SDS011;11520;51.198;4.468;2023-07-02T02:30:51;42.33;;;19.25;;
22705;SDS011;11520;51.198;4.468;2023-07-02T02:33:17;42.47;;;20.10;;
22705;SDS011;11520;51.198;4.468;2023-07-02T02:35:42;45.75;;;19.20;;
22705;SDS011;11520;51.198;4.468;2023-07-02T02:38:08;44.28;;;20.33;;
22705;SDS011;11520;51.198;4.468;2023-07-02T02:40:33;45.15;;;19.63;;
22705;SDS011;11520;51.198;4.468;2023-07-02T02:42:59;44.88;;;20.45;;
22705;SDS011;11520;51.198;4.468;2023-07-02T02:45:25;41.05;;;20.20;;
22705;SDS011;11520;51.198;4.468;2023-07-02T02:47:51;48.03;;;20.80;;
22705;SDS011;11520;51.198;4.468;2023-07-02T02:50:16;47.60;;;20.90;;
22705;SDS011;11520;51.198;4.468;2023-07-02T02:52:42;45.78;;;19.33;;
22705;SDS011;11520;51.198;4.468;2023-07-02T02:55:08;44.85;;;21.10;;
22705;SDS011;11520;51.198;4.468;2023-07-02T02:57:35;45.47;;;19.13;;
22705;SDS011;11520;51.198;4.468;2023-07-02T03:00:01;41.85;;;19.70;;
22705;SDS011;11520;51.198;4.468;2023-07-02T03:02:27;42.70;;;20.45;;
22705;SDS011;11520;51.198;4.468;2023-07-02T03:04:53;39.72;;;19.80;;
22705;SDS011;11520;51.198;4.468;2023-07-02T03:07:19;46.53;;;20.83;;
22705;SDS011;11520;51.198;4.468;2023-07-02T03:09:44;45.25;;;20.20;;
22705;SDS011;11520;51.198;4.468;2023-07-02T03:12:10;43.78;;;19.58;;
22705;SDS011;11520;51.198;4.468;2023-07-02T03:14:36;42.33;;;20.08;;
22705;SDS011;11520;51.198;4.468;2023-07-02T03:17:02;46.72;;;21.08;;
22705;SDS011;11520;51.198;4.468;2023-07-02T03:19:28;42.13;;;20.10;;
22705;SDS011;11520;51.198;4.468;2023-07-02T03:21:53;42.05;;;20.10;;
22705;SDS011;11520;51.198;4.468;2023-07-02T03:24:19;42.63;;;20.30;;
22705;SDS011;11520;51.198;4.468;2023-07-02T03:26:45;41.92;;;21.30;;
22705;SDS011;11520;51.198;4.468;2023-07-02T03:29:11;46.50;;;20.75;;
22705;SDS011;11520;51.198;4.468;2023-07-02T03:31:37;43.05;;;21.95;;
22705;SDS011;11520;51.198;4.468;2023-07-02T03:34:03;41.80;;;20.02;;
22705;SDS011;11520;51.198;4.468;2023-07-02T03:36:31;41.33;;;19.85;;
22705;SDS011;11520;51.198;4.468;2023-07-02T03:38:57;38.55;;;19.40;;
22705;SDS011;11520;51.198;4.468;2023-07-02T03:41:23;44.42;;;19.65;;
22705;SDS011;11520;51.198;4.468;2023-07-02T03:43:48;41.15;;;19.58;;
22705;SDS011;11520;51.198;4.468;2023-07-02T03:46:14;47.75;;;20.25;;
22705;SDS011;11520;51.198;4.468;2023-07-02T03:48:40;44.67;;;20.17;;
22705;SDS011;11520;51.198;4.468;2023-07-02T03:51:05;46.33;;;21.52;;
22705;SDS011;11520;51.198;4.468;2023-07-02T03:53:31;44.72;;;20.25;;
22705;SDS011;11520;51.198;4.468;2023-07-02T03:55:57;44.28;;;20.52;;
22705;SDS011;11520;51.198;4.468;2023-07-02T03:58:24;47.40;;;21.45;;
22705;SDS011;11520;51.198;4.468;2023-07-02T04:00:50;44.05;;;21.25;;
22705;SDS011;11520;51.198;4.468;2023-07-02T04:03:16;45.20;;;20.42;;
22705;SDS011;11520;51.198;4.468;2023-07-02T04:05:42;44.38;;;20.50;;
22705;SDS011;11520;51.198;4.468;2023-07-02T04:08:08;37.63;;;20.35;;
22705;SDS011;11520;51.198;4.468;2023-07-02T04:10:33;43.55;;;20.70;;
22705;SDS011;11520;51.198;4.468;2023-07-02T04:12:59;42.35;;;21.33;;
22705;SDS011;11520;51.198;4.468;2023-07-02T04:15:25;43.20;;;21.27;;
22705;SDS011;11520;51.198;4.468;2023-07-02T04:17:52;47.75;;;21.45;;
22705;SDS011;11520;51.198;4.468;2023-07-02T04:20:18;42.03;;;19.98;;
22705;SDS011;11520;51.198;4.468;2023-07-02T04:22:45;45.10;;;20.58;;
22705;SDS011;11520;51.198;4.468;2023-07-02T04:25:11;46.40;;;21.23;;
22705;SDS011;11520;51.198;4.468;2023-07-02T04:27:43;44.90;;;21.55;;
22705;SDS011;11520;51.198;4.468;2023-07-02T04:30:10;40.70;;;20.20;;
22705;SDS011;11520;51.198;4.468;2023-07-02T04:32:36;43.28;;;21.15;;
22705;SDS011;11520;51.198;4.468;2023-07-02T04:35:08;47.42;;;21.05;;
22705;SDS011;11520;51.198;4.468;2023-07-02T04:37:34;45.35;;;20.88;;
22705;SDS011;11520;51.198;4.468;2023-07-02T04:40:01;45.60;;;21.70;;
22705;SDS011;11520;51.198;4.468;2023-07-02T04:42:34;43.15;;;20.15;;
22705;SDS011;11520;51.198;4.468;2023-07-02T04:45:02;45.00;;;19.35;;
22705;SDS011;11520;51.198;4.468;2023-07-02T04:47:29;45.22;;;20.90;;
22705;SDS011;11520;51.198;4.468;2023-07-02T04:49:56;42.85;;;19.10;;
22705;SDS011;11520;51.198;4.468;2023-07-02T04:52:22;43.22;;;20.52;;
22705;SDS011;11520;51.198;4.468;2023-07-02T04:54:47;51.78;;;20.60;;
22705;SDS011;11520;51.198;4.468;2023-07-02T04:57:13;37.10;;;18.75;;
22705;SDS011;11520;51.198;4.468;2023-07-02T04:59:40;45.53;;;19.48;;
22705;SDS011;11520;51.198;4.468;2023-07-02T05:02:06;44.17;;;19.48;;
22705;SDS011;11520;51.198;4.468;2023-07-02T05:04:32;41.88;;;19.20;;
22705;SDS011;11520;51.198;4.468;2023-07-02T05:06:57;41.63;;;20.45;;
22705;SDS011;11520;51.198;4.468;2023-07-02T05:09:24;44.30;;;19.60;;
22705;SDS011;11520;51.198;4.468;2023-07-02T05:11:50;48.58;;;20.25;;
22705;SDS011;11520;51.198;4.468;2023-07-02T05:14:15;44.67;;;20.50;;
22705;SDS011;11520;51.198;4.468;2023-07-02T05:16:41;40.85;;;19.02;;
22705;SDS011;11520;51.198;4.468;2023-07-02T05:19:07;40.35;;;19.60;;
22705;SDS011;11520;51.198;4.468;2023-07-02T05:21:33;38.63;;;18.27;;
22705;SDS011;11520;51.198;4.468;2023-07-02T05:23:59;36.40;;;17.40;;
22705;SDS011;11520;51.198;4.468;2023-07-02T05:26:24;39.10;;;19.65;;
22705;SDS011;11520;51.198;4.468;2023-07-02T05:28:51;38.28;;;18.52;;
22705;SDS011;11520;51.198;4.468;2023-07-02T05:31:16;39.45;;;18.40;;
22705;SDS011;11520;51.198;4.468;2023-07-02T05:33:42;38.50;;;18.30;;
22705;SDS011;11520;51.198;4.468;2023-07-02T05:36:07;38.03;;;19.77;;
22705;SDS011;11520;51.198;4.468;2023-07-02T05:38:33;42.60;;;18.42;;
22705;SDS011;11520;51.198;4.468;2023-07-02T05:40:59;39.58;;;17.40;;
22705;SDS011;11520;51.198;4.468;2023-07-02T05:43:26;40.25;;;18.30;;
22705;SDS011;11520;51.198;4.468;2023-07-02T05:45:52;36.13;;;17.45;;
22705;SDS011;11520;51.198;4.468;2023-07-02T05:48:17;38.50;;;17.42;;
22705;SDS011;11520;51.198;4.468;2023-07-02T05:50:43;35.67;;;17.60;;
22705;SDS011;11520;51.198;4.468;2023-07-02T05:53:09;36.38;;;17.73;;
22705;SDS011;11520;51.198;4.468;2023-07-02T05:55:35;38.53;;;18.30;;
22705;SDS011;11520;51.198;4.468;2023-07-02T05:58:01;34.08;;;16.67;;
22705;SDS011;11520;51.198;4.468;2023-07-02T06:00:28;37.50;;;17.08;;
22705;SDS011;11520;51.198;4.468;2023-07-02T06:02:54;41.05;;;17.00;;
22705;SDS011;11520;51.198;4.468;2023-07-02T06:05:20;42.97;;;17.60;;
22705;SDS011;11520;51.198;4.468;2023-07-02T06:07:46;30.65;;;15.77;;
22705;SDS011;11520;51.198;4.468;2023-07-02T06:10:11;36.40;;;15.80;;
22705;SDS011;11520;51.198;4.468;2023-07-02T06:12:37;33.22;;;15.75;;
22705;SDS011;11520;51.198;4.468;2023-07-02T06:15:03;32.92;;;15.23;;
22705;SDS011;11520;51.198;4.468;2023-07-02T06:17:29;28.58;;;13.68;;
22705;SDS011;11520;51.198;4.468;2023-07-02T06:19:56;29.60;;;13.95;;
22705;SDS011;11520;51.198;4.468;2023-07-02T06:22:22;31.13;;;15.10;;
22705;SDS011;11520;51.198;4.468;2023-07-02T06:24:48;35.50;;;15.90;;
22705;SDS011;11520;51.198;4.468;2023-07-02T06:27:14;30.20;;;13.90;;
22705;SDS011;11520;51.198;4.468;2023-07-02T06:29:39;28.50;;;13.95;;
22705;SDS011;11520;51.198;4.468;2023-07-02T06:32:05;29.90;;;13.02;;
22705;SDS011;11520;51.198;4.468;2023-07-02T06:34:31;29.95;;;13.48;;
22705;SDS011;11520;51.198;4.468;2023-07-02T06:36:56;21.02;;;11.65;;
22705;SDS011;11520;51.198;4.468;2023-07-02T06:39:22;25.73;;;12.82;;
22705;SDS011;11520;51.198;4.468;2023-07-02T06:41:48;29.70;;;11.90;;
22705;SDS011;11520;51.198;4.468;2023-07-02T06:44:16;25.98;;;12.07;;
22705;SDS011;11520;51.198;4.468;2023-07-02T06:46:44;25.98;;;12.27;;
22705;SDS011;11520;51.198;4.468;2023-07-02T06:49:11;27.80;;;11.30;;
22705;SDS011;11520;51.198;4.468;2023-07-02T06:51:36;23.48;;;10.45;;
22705;SDS011;11520;51.198;4.468;2023-07-02T06:54:02;24.00;;;10.45;;
22705;SDS011;11520;51.198;4.468;2023-07-02T06:56:31;22.35;;;10.18;;
22705;SDS011;11520;51.198;4.468;2023-07-02T06:58:58;21.70;;;9.82;;
22705;SDS011;11520;51.198;4.468;2023-07-02T07:01:24;22.70;;;9.15;;
22705;SDS011;11520;51.198;4.468;2023-07-02T07:03:49;15.35;;;7.80;;
22705;SDS011;11520;51.198;4.468;2023-07-02T07:06:15;20.00;;;7.97;;
22705;SDS011;11520;51.198;4.468;2023-07-02T07:08:40;22.08;;;8.55;;
22705;SDS011;11520;51.198;4.468;2023-07-02T07:11:06;25.73;;;9.52;;
22705;SDS011;11520;51.198;4.468;2023-07-02T07:13:32;26.00;;;10.40;;
22705;SDS011;11520;51.198;4.468;2023-07-02T07:15:57;16.60;;;8.65;;
22705;SDS011;11520;51.198;4.468;2023-07-02T07:18:23;22.15;;;9.32;;
22705;SDS011;11520;51.198;4.468;2023-07-02T07:20:48;18.27;;;7.68;;
22705;SDS011;11520;51.198;4.468;2023-07-02T07:23:15;17.90;;;7.80;;
22705;SDS011;11520;51.198;4.468;2023-07-02T07:25:42;15.77;;;6.60;;
22705;SDS011;11520;51.198;4.468;2023-07-02T07:28:08;15.25;;;6.13;;
22705;SDS011;11520;51.198;4.468;2023-07-02T07:30:36;15.50;;;6.93;;
22705;SDS011;11520;51.198;4.468;2023-07-02T07:33:02;13.93;;;6.70;;
22705;SDS011;11520;51.198;4.468;2023-07-02T07:35:28;15.35;;;7.18;;
22705;SDS011;11520;51.198;4.468;2023-07-02T07:37:53;13.93;;;6.32;;
22705;SDS011;11520;51.198;4.468;2023-07-02T07:40:24;17.25;;;6.50;;
22705;SDS011;11520;51.198;4.468;2023-07-02T07:42:50;18.48;;;7.13;;
22705;SDS011;11520;51.198;4.468;2023-07-02T07:45:15;12.55;;;7.20;;
22705;SDS011;11520;51.198;4.468;2023-07-02T07:47:41;14.70;;;6.65;;
22705;SDS011;11520;51.198;4.468;2023-07-02T07:50:07;12.15;;;5.88;;
22705;SDS011;11520;51.198;4.468;2023-07-02T07:52:39;13.48;;;6.18;;
22705;SDS011;11520;51.198;4.468;2023-07-02T07:55:06;12.70;;;6.28;;
22705;SDS011;11520;51.198;4.468;2023-07-02T07:57:32;14.90;;;6.35;;
22705;SDS011;11520;51.198;4.468;2023-07-02T07:59:58;11.70;;;5.68;;
22705;SDS011;11520;51.198;4.468;2023-07-02T08:02:24;11.90;;;5.40;;
22705;SDS011;11520;51.198;4.468;2023-07-02T08:04:50;13.68;;;6.15;;
22705;SDS011;11520;51.198;4.468;2023-07-02T08:07:15;17.42;;;6.90;;
22705;SDS011;11520;51.198;4.468;2023-07-02T08:09:41;15.23;;;5.93;;
22705;SDS011;11520;51.198;4.468;2023-07-02T08:12:07;13.70;;;5.93;;
22705;SDS011;11520;51.198;4.468;2023-07-02T08:14:33;13.95;;;5.80;;
22705;SDS011;11520;51.198;4.468;2023-07-02T08:17:00;11.32;;;6.03;;
22705;SDS011;11520;51.198;4.468;2023-07-02T08:19:26;12.25;;;5.70;;
22705;SDS011;11520;51.198;4.468;2023-07-02T08:21:51;14.80;;;6.28;;
22705;SDS011;11520;51.198;4.468;2023-07-02T08:24:17;11.02;;;5.30;;
22705;SDS011;11520;51.198;4.468;2023-07-02T08:26:43;13.13;;;5.90;;
22705;SDS011;11520;51.198;4.468;2023-07-02T08:29:09;15.32;;;5.75;;
22705;SDS011;11520;51.198;4.468;2023-07-02T08:31:35;12.35;;;6.18;;
22705;SDS011;11520;51.198;4.468;2023-07-02T08:34:01;12.35;;;5.97;;
22705;SDS011;11520;51.198;4.468;2023-07-02T08:36:26;13.85;;;6.07;;
22705;SDS011;11520;51.198;4.468;2023-07-02T08:38:52;13.65;;;6.05;;
22705;SDS011;11520;51.198;4.468;2023-07-02T08:41:20;14.93;;;6.47;;
22705;SDS011;11520;51.198;4.468;2023-07-02T08:43:46;15.68;;;6.43;;
22705;SDS011;11520;51.198;4.468;2023-07-02T08:46:14;12.80;;;5.90;;
22705;SDS011;11520;51.198;4.468;2023-07-02T08:48:40;15.80;;;6.50;;
22705;SDS011;11520;51.198;4.468;2023-07-02T08:51:06;13.18;;;6.03;;
22705;SDS011;11520;51.198;4.468;2023-07-02T08:53:32;13.32;;;6.00;;
22705;SDS011;11520;51.198;4.468;2023-07-02T08:55:59;11.48;;;5.07;;
22705;SDS011;11520;51.198;4.468;2023-07-02T08:58:25;12.68;;;5.85;;
22705;SDS011;11520;51.198;4.468;2023-07-02T09:01:10;12.50;;;5.57;;
22705;SDS011;11520;51.198;4.468;2023-07-02T09:03:37;15.63;;;6.32;;
22705;SDS011;11520;51.198;4.468;2023-07-02T09:06:07;15.05;;;5.63;;
22705;SDS011;11520;51.198;4.468;2023-07-02T09:08:33;13.65;;;6.13;;
22705;SDS011;11520;51.198;4.468;2023-07-02T09:11:06;12.82;;;5.68;;
22705;SDS011;11520;51.198;4.468;2023-07-02T09:13:42;12.55;;;5.65;;
22705;SDS011;11520;51.198;4.468;2023-07-02T09:16:21;16.25;;;6.10;;
22705;SDS011;11520;51.198;4.468;2023-07-02T09:21:26;14.07;;;6.30;;
22705;SDS011;11520;51.198;4.468;2023-07-02T09:23:53;12.95;;;5.30;;
22705;SDS011;11520;51.198;4.468;2023-07-02T09:26:21;13.60;;;5.72;;
22705;SDS011;11520;51.198;4.468;2023-07-02T09:28:47;14.20;;;6.13;;
22705;SDS011;11520;51.198;4.468;2023-07-02T09:31:13;13.77;;;6.22;;
22705;SDS011;11520;51.198;4.468;2023-07-02T09:33:38;14.55;;;6.57;;
22705;SDS011;11520;51.198;4.468;2023-07-02T09:36:04;15.15;;;5.60;;
22705;SDS011;11520;51.198;4.468;2023-07-02T09:38:30;16.80;;;6.93;;
22705;SDS011;11520;51.198;4.468;2023-07-02T09:40:56;15.27;;;6.93;;
22705;SDS011;11520;51.198;4.468;2023-07-02T09:43:27;16.77;;;6.93;;
22705;SDS011;11520;51.198;4.468;2023-07-02T09:45:54;13.40;;;7.00;;
22705;SDS011;11520;51.198;4.468;2023-07-02T09:48:22;16.10;;;6.95;;
22705;SDS011;11520;51.198;4.468;2023-07-02T09:50:56;17.58;;;7.40;;
22705;SDS011;11520;51.198;4.468;2023-07-02T09:53:24;18.10;;;7.95;;
22705;SDS011;11520;51.198;4.468;2023-07-02T09:55:52;16.60;;;7.50;;
22705;SDS011;11520;51.198;4.468;2023-07-02T09:58:20;18.50;;;9.00;;
22705;SDS011;11520;51.198;4.468;2023-07-02T10:00:47;22.33;;;8.75;;
22705;SDS011;11520;51.198;4.468;2023-07-02T10:03:13;20.10;;;9.13;;
22705;SDS011;11520;51.198;4.468;2023-07-02T10:05:39;18.67;;;7.85;;
22705;SDS011;11520;51.198;4.468;2023-07-02T10:08:12;21.17;;;8.55;;
22705;SDS011;11520;51.198;4.468;2023-07-02T10:10:43;19.67;;;8.38;;
22705;SDS011;11520;51.198;4.468;2023-07-02T10:13:11;23.88;;;9.13;;
22705;SDS011;11520;51.198;4.468;2023-07-02T10:15:37;21.63;;;8.43;;
22705;SDS011;11520;51.198;4.468;2023-07-02T10:18:05;24.05;;;9.10;;
22705;SDS011;11520;51.198;4.468;2023-07-02T10:20:35;19.98;;;9.10;;
22705;SDS011;11520;51.198;4.468;2023-07-02T10:23:05;19.65;;;8.13;;
22705;SDS011;11520;51.198;4.468;2023-07-02T10:25:35;15.48;;;7.65;;
22705;SDS011;11520;51.198;4.468;2023-07-02T10:28:14;21.02;;;8.60;;
22705;SDS011;11520;51.198;4.468;2023-07-02T10:30:41;20.13;;;8.70;;
22705;SDS011;11520;51.198;4.468;2023-07-02T10:33:18;17.63;;;8.75;;
22705;SDS011;11520;51.198;4.468;2023-07-02T10:35:55;18.27;;;7.18;;
22705;SDS011;11520;51.198;4.468;2023-07-02T10:38:23;19.13;;;8.50;;
22705;SDS011;11520;51.198;4.468;2023-07-02T10:40:58;17.63;;;7.25;;
22705;SDS011;11520;51.198;4.468;2023-07-02T10:43:29;19.42;;;8.60;;
22705;SDS011;11520;51.198;4.468;2023-07-02T10:45:57;17.23;;;7.32;;
22705;SDS011;11520;51.198;4.468;2023-07-02T10:48:25;12.48;;;7.88;;
22705;SDS011;11520;51.198;4.468;2023-07-02T10:50:51;20.10;;;8.40;;
22705;SDS011;11520;51.198;4.468;2023-07-02T10:53:19;13.75;;;5.88;;
22705;SDS011;11520;51.198;4.468;2023-07-02T10:55:46;15.02;;;7.30;;
22705;SDS011;11520;51.198;4.468;2023-07-02T10:58:18;20.67;;;7.10;;
22705;SDS011;11520;51.198;4.468;2023-07-02T11:00:47;15.93;;;7.75;;
22705;SDS011;11520;51.198;4.468;2023-07-02T11:03:20;11.55;;;6.40;;
22705;SDS011;11520;51.198;4.468;2023-07-02T11:05:50;15.80;;;6.60;;
22705;SDS011;11520;51.198;4.468;2023-07-02T11:08:17;16.83;;;6.43;;
22705;SDS011;11520;51.198;4.468;2023-07-02T11:10:43;13.90;;;6.75;;
22705;SDS011;11520;51.198;4.468;2023-07-02T11:13:12;14.18;;;6.45;;
22705;SDS011;11520;51.198;4.468;2023-07-02T11:15:38;14.90;;;6.20;;
22705;SDS011;11520;51.198;4.468;2023-07-02T11:18:13;14.15;;;6.20;;
22705;SDS011;11520;51.198;4.468;2023-07-02T11:20:43;16.08;;;6.03;;
22705;SDS011;11520;51.198;4.468;2023-07-02T11:23:16;14.60;;;6.50;;
22705;SDS011;11520;51.198;4.468;2023-07-02T11:26:00;13.10;;;5.65;;
22705;SDS011;11520;51.198;4.468;2023-07-02T11:28:28;11.50;;;5.85;;
22705;SDS011;11520;51.198;4.468;2023-07-02T11:30:55;15.52;;;5.75;;
22705;SDS011;11520;51.198;4.468;2023-07-02T11:33:35;12.20;;;5.72;;
22705;SDS011;11520;51.198;4.468;2023-07-02T11:36:01;8.85;;;5.13;;
22705;SDS011;11520;51.198;4.468;2023-07-02T11:38:26;12.40;;;5.53;;
22705;SDS011;11520;51.198;4.468;2023-07-02T11:40:52;9.18;;;5.22;;
22705;SDS011;11520;51.198;4.468;2023-07-02T11:43:18;11.60;;;5.38;;
22705;SDS011;11520;51.198;4.468;2023-07-02T11:45:43;10.98;;;5.78;;
22705;SDS011;11520;51.198;4.468;2023-07-02T11:48:09;12.45;;;5.97;;
22705;SDS011;11520;51.198;4.468;2023-07-02T11:50:35;14.80;;;6.20;;
22705;SDS011;11520;51.198;4.468;2023-07-02T11:53:00;10.32;;;4.75;;
22705;SDS011;11520;51.198;4.468;2023-07-02T11:55:26;12.90;;;5.22;;
22705;SDS011;11520;51.198;4.468;2023-07-02T11:57:51;10.27;;;5.55;;
22705;SDS011;11520;51.198;4.468;2023-07-02T12:00:17;11.98;;;5.40;;
22705;SDS011;11520;51.198;4.468;2023-07-02T12:02:44;10.32;;;5.07;;
22705;SDS011;11520;51.198;4.468;2023-07-02T12:05:10;10.48;;;5.10;;
22705;SDS011;11520;51.198;4.468;2023-07-02T12:07:35;11.75;;;5.88;;
22705;SDS011;11520;51.198;4.468;2023-07-02T12:10:01;13.00;;;5.32;;
22705;SDS011;11520;51.198;4.468;2023-07-02T12:12:27;10.90;;;5.22;;
22705;SDS011;11520;51.198;4.468;2023-07-02T12:14:52;8.85;;;4.68;;
22705;SDS011;11520;51.198;4.468;2023-07-02T12:17:18;11.40;;;5.95;;
22705;SDS011;11520;51.198;4.468;2023-07-02T12:19:43;11.48;;;5.72;;
22705;SDS011;11520;51.198;4.468;2023-07-02T12:22:09;9.40;;;4.72;;
22705;SDS011;11520;51.198;4.468;2023-07-02T12:24:34;12.90;;;5.38;;
22705;SDS011;11520;51.198;4.468;2023-07-02T12:27:00;9.65;;;5.25;;
22705;SDS011;11520;51.198;4.468;2023-07-02T12:29:26;10.65;;;4.93;;
22705;SDS011;11520;51.198;4.468;2023-07-02T12:31:53;10.30;;;5.07;;
22705;SDS011;11520;51.198;4.468;2023-07-02T12:34:19;10.57;;;4.88;;
22705;SDS011;11520;51.198;4.468;2023-07-02T12:36:45;10.63;;;4.63;;
22705;SDS011;11520;51.198;4.468;2023-07-02T12:39:10;9.98;;;5.18;;
22705;SDS011;11520;51.198;4.468;2023-07-02T12:41:36;15.30;;;5.10;;
22705;SDS011;11520;51.198;4.468;2023-07-02T12:44:02;15.77;;;4.80;;
22705;SDS011;11520;51.198;4.468;2023-07-02T12:46:27;10.45;;;4.60;;
22705;SDS011;11520;51.198;4.468;2023-07-02T12:48:53;12.80;;;5.18;;
22705;SDS011;11520;51.198;4.468;2023-07-02T12:51:18;13.48;;;5.40;;
22705;SDS011;11520;51.198;4.468;2023-07-02T12:53:44;12.85;;;4.80;;
22705;SDS011;11520;51.198;4.468;2023-07-02T12:56:10;11.00;;;5.22;;
22705;SDS011;11520;51.198;4.468;2023-07-02T12:58:36;15.80;;;5.93;;
22705;SDS011;11520;51.198;4.468;2023-07-02T13:01:02;11.32;;;5.85;;
22705;SDS011;11520;51.198;4.468;2023-07-02T13:03:29;12.77;;;4.72;;
22705;SDS011;11520;51.198;4.468;2023-07-02T13:05:55;12.77;;;5.20;;
22705;SDS011;11520;51.198;4.468;2023-07-02T13:08:21;10.13;;;4.90;;
22705;SDS011;11520;51.198;4.468;2023-07-02T13:10:47;10.23;;;4.82;;
22705;SDS011;11520;51.198;4.468;2023-07-02T13:13:12;14.45;;;5.15;;
22705;SDS011;11520;51.198;4.468;2023-07-02T13:15:38;12.63;;;5.53;;
22705;SDS011;11520;51.198;4.468;2023-07-02T13:18:04;10.40;;;4.40;;
22705;SDS011;11520;51.198;4.468;2023-07-02T13:20:30;13.02;;;5.22;;
22705;SDS011;11520;51.198;4.468;2023-07-02T13:22:56;11.68;;;5.47;;
22705;SDS011;11520;51.198;4.468;2023-07-02T13:25:23;13.15;;;5.47;;
22705;SDS011;11520;51.198;4.468;2023-07-02T13:27:49;11.45;;;5.63;;
22705;SDS011;11520;51.198;4.468;2023-07-02T13:30:14;13.68;;;5.07;;
22705;SDS011;11520;51.198;4.468;2023-07-02T13:32:40;12.48;;;5.57;;
22705;SDS011;11520;51.198;4.468;2023-07-02T13:35:05;14.20;;;4.90;;
22705;SDS011;11520;51.198;4.468;2023-07-02T13:37:31;10.07;;;4.97;;
22705;SDS011;11520;51.198;4.468;2023-07-02T13:39:57;17.25;;;5.20;;
22705;SDS011;11520;51.198;4.468;2023-07-02T13:42:22;12.85;;;5.75;;
22705;SDS011;11520;51.198;4.468;2023-07-02T13:44:48;13.45;;;5.60;;
22705;SDS011;11520;51.198;4.468;2023-07-02T13:47:14;12.20;;;5.15;;
22705;SDS011;11520;51.198;4.468;2023-07-02T13:49:39;14.15;;;5.50;;
22705;SDS011;11520;51.198;4.468;2023-07-02T13:52:05;15.63;;;5.95;;
22705;SDS011;11520;51.198;4.468;2023-07-02T13:54:31;11.40;;;5.68;;
22705;SDS011;11520;51.198;4.468;2023-07-02T13:56:56;12.90;;;5.10;;
22705;SDS011;11520;51.198;4.468;2023-07-02T13:59:22;15.00;;;5.82;;
22705;SDS011;11520;51.198;4.468;2023-07-02T14:01:48;11.35;;;5.03;;
22705;SDS011;11520;51.198;4.468;2023-07-02T14:04:15;12.35;;;5.85;;
22705;SDS011;11520;51.198;4.468;2023-07-02T14:06:41;9.85;;;5.68;;
22705;SDS011;11520;51.198;4.468;2023-07-02T14:09:07;12.10;;;5.60;;
22705;SDS011;11520;51.198;4.468;2023-07-02T14:11:34;14.20;;;6.18;;
22705;SDS011;11520;51.198;4.468;2023-07-02T14:14:01;12.55;;;5.93;;
22705;SDS011;11520;51.198;4.468;2023-07-02T14:16:27;13.95;;;5.45;;
22705;SDS011;11520;51.198;4.468;2023-07-02T14:18:52;12.68;;;5.82;;
22705;SDS011;11520;51.198;4.468;2023-07-02T14:21:18;16.42;;;6.47;;
22705;SDS011;11520;51.198;4.468;2023-07-02T14:23:44;15.13;;;6.05;;
22705;SDS011;11520;51.198;4.468;2023-07-02T14:26:10;12.48;;;6.10;;
22705;SDS011;11520;51.198;4.468;2023-07-02T14:28:37;12.80;;;5.53;;